createdAt,value
2022-11-06T00:01:45.050Z,14.02
2022-11-06T00:06:07.085Z,14.95
2022-11-06T00:08:12.196Z,15.40
2022-11-06T00:10:18.268Z,14.93
2022-11-06T00:12:25.631Z,15.05
2022-11-06T00:14:30.358Z,14.95
2022-11-06T00:16:35.444Z,14.68
2022-11-06T00:18:41.980Z,14.48
2022-11-06T00:20:46.794Z,15.57
2022-11-06T00:22:51.636Z,13.85
2022-11-06T00:24:56.456Z,16.48
2022-11-06T00:27:01.192Z,15.23
2022-11-06T00:29:09.672Z,14.85
2022-11-06T00:31:16.106Z,14.57
2022-11-06T00:33:20.912Z,15.73
2022-11-06T00:35:25.658Z,16.25
2022-11-06T00:37:30.477Z,16.35
2022-11-06T00:39:35.210Z,14.50
2022-11-06T00:41:39.964Z,14.25
2022-11-06T00:43:45.211Z,15.88
2022-11-06T00:47:57.557Z,15.65
2022-11-06T00:50:02.356Z,16.05
2022-11-06T00:52:07.119Z,15.95
2022-11-06T00:54:15.513Z,15.80
2022-11-06T00:56:22.193Z,16.20
2022-11-06T00:58:26.972Z,15.07
2022-11-06T01:00:34.077Z,15.85
2022-11-06T01:02:41.631Z,16.92
2022-11-06T01:04:47.224Z,16.15
2022-11-06T01:06:54.107Z,15.70
2022-11-06T01:09:00.094Z,16.17
2022-11-06T01:11:12.505Z,14.80
2022-11-06T01:13:17.304Z,14.65
2022-11-06T01:15:22.194Z,14.55
2022-11-06T01:17:26.948Z,15.60
2022-11-06T01:19:34.335Z,16.58
2022-11-06T01:21:41.948Z,14.98
2022-11-06T01:23:47.193Z,15.35
2022-11-06T01:26:00.015Z,15.13
2022-11-06T01:28:04.946Z,15.48
2022-11-06T01:30:11.664Z,15.38
2022-11-06T01:32:16.453Z,15.02
2022-11-06T01:34:21.550Z,14.80
2022-11-06T01:36:30.310Z,16.13
2022-11-06T01:38:35.050Z,13.27
2022-11-06T01:40:43.140Z,15.00
2022-11-06T01:42:47.862Z,14.68
2022-11-06T01:45:32.233Z,14.95
2022-11-06T01:47:37.047Z,14.35
2022-11-06T01:49:41.832Z,15.40
2022-11-06T01:51:53.581Z,14.35
2022-11-06T01:53:59.948Z,14.23
2022-11-06T01:56:07.561Z,13.85
2022-11-06T01:58:16.301Z,14.02
2022-11-06T02:00:22.849Z,15.15
2022-11-06T02:02:27.841Z,15.00
2022-11-06T02:04:37.330Z,15.50
2022-11-06T02:06:42.109Z,14.63
2022-11-06T02:08:49.761Z,14.07
2022-11-06T02:10:55.494Z,13.85
2022-11-06T02:13:15.728Z,14.32
2022-11-06T02:15:28.273Z,14.68
2022-11-06T02:17:44.371Z,14.30
2022-11-06T02:20:02.168Z,14.13
2022-11-06T02:22:29.429Z,13.38
2022-11-06T02:24:53.440Z,13.52
2022-11-06T02:27:10.459Z,12.63
2022-11-06T02:29:21.134Z,13.90
2022-11-06T02:31:29.371Z,14.20
2022-11-06T02:33:39.635Z,13.23
2022-11-06T02:35:48.389Z,13.50
2022-11-06T02:37:57.940Z,11.95
2022-11-06T02:40:07.359Z,12.52
2022-11-06T02:42:18.802Z,12.20
2022-11-06T02:44:27.726Z,12.85
2022-11-06T02:46:37.229Z,13.30
2022-11-06T02:48:48.164Z,11.55
2022-11-06T02:50:54.947Z,14.25
2022-11-06T02:53:04.747Z,13.95
2022-11-06T02:55:14.134Z,12.93
2022-11-06T02:57:23.683Z,13.02
2022-11-06T02:59:33.366Z,13.82
2022-11-06T03:01:42.013Z,12.60
2022-11-06T03:03:53.297Z,13.85
2022-11-06T03:06:02.405Z,13.23
2022-11-06T03:08:13.869Z,13.18
2022-11-06T03:10:19.780Z,12.98
2022-11-06T03:12:31.207Z,12.43
2022-11-06T03:14:42.645Z,12.93
2022-11-06T03:16:55.877Z,13.27
2022-11-06T03:19:06.932Z,13.23
2022-11-06T03:21:23.882Z,12.90
2022-11-06T03:23:36.779Z,12.05
2022-11-06T03:25:47.948Z,13.07
2022-11-06T03:28:04.580Z,12.35
2022-11-06T03:30:16.585Z,12.65
2022-11-06T03:32:26.967Z,12.32
2022-11-06T03:34:35.196Z,12.48
2022-11-06T03:36:44.939Z,11.93
2022-11-06T03:38:54.190Z,11.73
2022-11-06T03:41:05.522Z,11.85
2022-11-06T03:43:17.196Z,11.82
2022-11-06T03:45:25.272Z,11.50
2022-11-06T03:47:34.959Z,12.30
2022-11-06T03:49:44.919Z,10.80
2022-11-06T03:51:55.886Z,11.57
2022-11-06T03:54:05.505Z,11.00
2022-11-06T03:56:15.320Z,11.40
2022-11-06T03:58:26.949Z,11.63
2022-11-06T04:00:32.657Z,11.70
2022-11-06T04:02:41.003Z,11.07
2022-11-06T04:04:52.184Z,11.57
2022-11-06T04:07:02.490Z,12.10
2022-11-06T04:09:22.967Z,11.50
2022-11-06T04:11:42.968Z,11.70
2022-11-06T04:14:03.015Z,12.35
2022-11-06T04:16:09.752Z,12.48
2022-11-06T04:18:16.228Z,12.63
2022-11-06T04:20:37.115Z,11.02
2022-11-06T04:22:50.926Z,11.50
2022-11-06T04:25:18.861Z,12.30
2022-11-06T04:27:39.808Z,11.85
2022-11-06T04:30:25.757Z,11.88
2022-11-06T04:32:41.090Z,11.55
2022-11-06T04:34:51.426Z,11.30
2022-11-06T04:37:08.113Z,11.05
2022-11-06T04:39:20.806Z,10.77
2022-11-06T04:41:37.137Z,10.90
2022-11-06T04:43:46.896Z,10.95
2022-11-06T04:45:58.287Z,11.82
2022-11-06T04:48:04.827Z,11.13
2022-11-06T04:50:12.318Z,10.95
2022-11-06T04:52:21.629Z,12.05
2022-11-06T04:54:26.981Z,11.80
2022-11-06T04:56:35.224Z,10.98
2022-11-06T04:58:41.276Z,10.63
2022-11-06T05:02:56.233Z,10.55
2022-11-06T05:05:01.128Z,11.82
2022-11-06T05:07:06.317Z,11.10
2022-11-06T05:09:11.109Z,10.50
2022-11-06T05:11:16.052Z,9.25
2022-11-06T05:13:20.763Z,10.60
2022-11-06T05:15:25.567Z,10.57
2022-11-06T05:17:35.342Z,11.32
2022-11-06T05:19:43.808Z,11.63
2022-11-06T05:22:00.986Z,10.65
2022-11-06T05:24:06.389Z,11.63
2022-11-06T05:28:15.933Z,11.43
2022-11-06T05:30:20.906Z,11.35
2022-11-06T05:32:25.715Z,10.23
2022-11-06T05:34:30.454Z,10.48
2022-11-06T05:36:38.140Z,11.15
2022-11-06T05:38:43.006Z,10.90
2022-11-06T05:40:47.766Z,12.25
2022-11-06T05:42:52.548Z,11.65
2022-11-06T05:44:57.398Z,10.70
2022-11-06T05:47:02.131Z,11.18
2022-11-06T05:49:07.032Z,10.73
2022-11-06T05:51:12.293Z,11.70
2022-11-06T05:53:19.713Z,11.10
2022-11-06T05:55:24.533Z,10.77
2022-11-06T05:57:29.387Z,10.70
2022-11-06T05:59:34.120Z,9.93
2022-11-06T06:01:39.220Z,9.98
2022-11-06T06:05:49.119Z,9.25
2022-11-06T06:07:53.930Z,8.40
2022-11-06T06:10:01.319Z,8.25
2022-11-06T06:12:06.211Z,8.35
2022-11-06T06:14:11.007Z,9.50
2022-11-06T06:16:15.973Z,7.25
2022-11-06T06:18:20.847Z,8.30
2022-11-06T06:20:25.587Z,8.10
2022-11-06T06:22:30.319Z,7.90
2022-11-06T06:24:35.460Z,7.72
2022-11-06T06:26:43.207Z,7.70
2022-11-06T06:28:50.849Z,7.97
2022-11-06T06:31:01.044Z,7.32
2022-11-06T06:33:08.340Z,8.30
2022-11-06T06:35:13.374Z,7.93
2022-11-06T06:37:20.174Z,8.45
2022-11-06T06:39:25.933Z,7.55
2022-11-06T06:41:30.749Z,8.05
2022-11-06T06:43:38.732Z,7.40
2022-11-06T06:45:43.568Z,7.43
2022-11-06T06:47:48.346Z,8.88
2022-11-06T06:49:53.102Z,7.65
2022-11-06T06:51:58.077Z,8.07
2022-11-06T06:54:03.162Z,8.55
2022-11-06T06:56:08.935Z,8.75
2022-11-06T06:58:17.885Z,7.97
2022-11-06T07:00:25.687Z,7.47
2022-11-06T07:02:30.488Z,7.30
2022-11-06T07:04:35.345Z,6.85
2022-11-06T07:06:40.081Z,7.88
2022-11-06T07:08:44.819Z,7.07
2022-11-06T07:10:49.606Z,7.30
2022-11-06T07:12:54.424Z,7.53
2022-11-06T07:14:59.221Z,7.85
2022-11-06T07:17:06.655Z,8.23
2022-11-06T07:19:11.431Z,8.07
2022-11-06T07:21:16.543Z,8.57
2022-11-06T07:23:21.323Z,8.48
2022-11-06T07:25:26.099Z,8.23
2022-11-06T07:27:30.932Z,7.57
2022-11-06T07:29:35.905Z,7.35
2022-11-06T07:31:40.696Z,8.13
2022-11-06T07:33:48.049Z,7.70
2022-11-06T07:35:52.817Z,8.93
2022-11-06T07:37:57.710Z,7.10
2022-11-06T07:40:02.421Z,7.45
2022-11-06T07:42:07.575Z,7.80
2022-11-06T07:44:14.864Z,7.72
2022-11-06T07:46:19.711Z,7.78
2022-11-06T07:48:24.460Z,7.10
2022-11-06T07:50:32.214Z,7.20
2022-11-06T07:52:37.080Z,6.55
2022-11-06T07:54:42.061Z,7.50
2022-11-06T07:56:46.853Z,6.45
2022-11-06T07:58:51.645Z,7.18
2022-11-06T08:00:58.335Z,6.88
2022-11-06T08:03:03.274Z,6.60
2022-11-06T08:05:08.761Z,6.57
2022-11-06T08:07:16.249Z,6.78
2022-11-06T08:09:21.830Z,7.13
2022-11-06T08:11:27.728Z,6.28
2022-11-06T08:13:34.017Z,6.18
2022-11-06T08:15:40.321Z,6.63
2022-11-06T08:17:45.072Z,6.93
2022-11-06T08:19:49.877Z,6.95
2022-11-06T08:21:54.680Z,6.88
2022-11-06T08:24:02.153Z,6.35
2022-11-06T08:26:08.639Z,6.43
2022-11-06T08:28:13.985Z,6.20
2022-11-06T08:30:19.167Z,6.80
2022-11-06T08:32:24.078Z,6.80
2022-11-06T08:34:28.783Z,7.25
2022-11-06T08:36:33.667Z,6.25
2022-11-06T08:38:39.133Z,7.45
2022-11-06T08:40:52.272Z,7.18
2022-11-06T08:43:01.968Z,9.25
2022-11-06T08:45:07.760Z,12.00
2022-11-06T08:47:12.750Z,9.95
2022-11-06T08:49:17.543Z,10.70
2022-11-06T08:51:22.326Z,11.45
2022-11-06T08:53:27.135Z,11.10
2022-11-06T08:55:31.923Z,13.23
2022-11-06T08:57:39.379Z,11.80
2022-11-06T08:59:44.200Z,9.85
2022-11-06T09:01:49.116Z,15.50
2022-11-06T09:03:54.155Z,16.70
2022-11-06T09:05:59.029Z,13.82
2022-11-06T09:08:04.122Z,13.07
2022-11-06T09:12:14.131Z,13.15
2022-11-06T09:14:21.559Z,12.65
2022-11-06T09:16:26.807Z,11.23
2022-11-06T09:18:31.630Z,11.18
2022-11-06T09:20:36.439Z,12.20
2022-11-06T09:22:41.633Z,12.18
2022-11-06T09:27:09.368Z,10.95
2022-11-06T09:29:14.151Z,12.05
2022-11-06T09:31:21.549Z,12.40
2022-11-06T09:33:26.345Z,12.18
2022-11-06T09:35:33.108Z,12.00
2022-11-06T09:37:38.739Z,14.23
2022-11-06T09:39:43.586Z,13.35
2022-11-06T09:41:56.584Z,13.60
2022-11-06T09:44:16.448Z,14.40
2022-11-06T09:46:29.172Z,13.32
2022-11-06T09:48:38.729Z,14.07
2022-11-06T09:50:50.057Z,15.55
2022-11-06T09:53:12.767Z,14.73
2022-11-06T09:55:21.905Z,13.85
2022-11-06T09:57:34.027Z,14.43
2022-11-06T09:59:42.585Z,14.73
2022-11-06T10:01:53.503Z,14.27
2022-11-06T10:04:01.379Z,15.60
2022-11-06T10:06:06.503Z,14.68
2022-11-06T10:08:18.659Z,15.77
2022-11-06T10:10:29.789Z,13.65
2022-11-06T10:12:42.738Z,15.60
2022-11-06T10:15:01.556Z,14.52
2022-11-06T10:17:18.557Z,14.15
2022-11-06T10:19:28.540Z,14.73
2022-11-06T10:21:43.033Z,12.90
2022-11-06T10:23:53.144Z,14.70
2022-11-06T10:26:10.359Z,14.13
2022-11-06T10:28:32.771Z,13.75
2022-11-06T10:30:47.004Z,14.95
2022-11-06T10:33:18.708Z,13.90
2022-11-06T10:35:27.379Z,12.80
2022-11-06T10:37:35.515Z,12.63
2022-11-06T10:39:41.306Z,13.60
2022-11-06T10:41:50.424Z,14.85
2022-11-06T10:44:00.098Z,10.93
2022-11-06T10:46:14.964Z,11.35
2022-11-06T10:48:31.703Z,11.30
2022-11-06T10:50:49.682Z,11.18
2022-11-06T10:52:59.443Z,47.40
2022-11-06T10:55:42.498Z,16.35
2022-11-06T10:57:53.523Z,11.48
2022-11-06T10:59:59.186Z,10.05
2022-11-06T11:02:05.585Z,11.15
2022-11-06T11:04:13.155Z,9.23
2022-11-06T11:06:17.969Z,10.38
2022-11-06T11:08:40.461Z,9.52
2022-11-06T11:11:00.776Z,9.85
2022-11-06T11:13:09.250Z,9.95
2022-11-06T11:15:17.549Z,10.10
2022-11-06T11:17:23.494Z,19.40
2022-11-06T11:19:38.286Z,19.85
2022-11-06T11:21:55.700Z,13.90
2022-11-06T11:24:11.559Z,13.45
2022-11-06T11:28:33.206Z,9.85
2022-11-06T11:30:38.042Z,9.43
2022-11-06T11:32:42.962Z,10.73
2022-11-06T11:34:56.809Z,9.98
2022-11-06T11:37:04.565Z,10.85
2022-11-06T11:39:09.670Z,10.70
2022-11-06T11:41:16.765Z,11.30
2022-11-06T11:43:29.860Z,10.15
2022-11-06T11:45:34.689Z,10.77
2022-11-06T11:47:41.733Z,11.70
2022-11-06T11:49:46.654Z,14.95
2022-11-06T11:51:57.717Z,11.70
2022-11-06T11:54:20.723Z,9.40
2022-11-06T11:56:42.864Z,10.70
2022-11-06T11:58:56.415Z,11.60
2022-11-06T12:01:04.916Z,9.80
2022-11-06T12:03:15.393Z,10.02
2022-11-06T12:05:25.503Z,10.07
2022-11-06T12:07:35.608Z,10.55
2022-11-06T12:09:46.459Z,11.32
2022-11-06T12:11:51.659Z,11.73
2022-11-06T12:14:21.550Z,11.57
2022-11-06T12:16:26.459Z,10.93
2022-11-06T12:18:35.891Z,10.35
2022-11-06T12:20:45.328Z,10.13
2022-11-06T12:22:55.346Z,10.85
2022-11-06T12:25:05.563Z,10.75
2022-11-06T12:27:15.988Z,10.02
2022-11-06T12:29:25.115Z,10.20
2022-11-06T12:31:39.642Z,9.35
2022-11-06T12:34:05.717Z,9.68
2022-11-06T12:36:15.610Z,9.70
2022-11-06T12:38:33.105Z,10.32
2022-11-06T12:40:41.928Z,10.40
2022-11-06T12:43:00.692Z,10.23
2022-11-06T12:45:05.545Z,10.63
2022-11-06T12:47:25.360Z,9.20
2022-11-06T12:49:50.957Z,9.65
2022-11-06T12:52:09.550Z,9.80
2022-11-06T12:54:39.632Z,10.32
2022-11-06T12:56:54.663Z,10.38
2022-11-06T12:59:08.812Z,9.87
2022-11-06T13:01:22.922Z,10.18
2022-11-06T13:03:44.479Z,10.52
2022-11-06T13:05:58.403Z,10.68
2022-11-06T13:08:18.332Z,10.57
2022-11-06T13:10:43.695Z,10.00
2022-11-06T13:13:00.649Z,10.00
2022-11-06T13:15:15.616Z,10.45
2022-11-06T13:17:27.452Z,9.47
2022-11-06T13:19:37.010Z,9.95
2022-11-06T13:22:14.824Z,10.77
2022-11-06T13:24:25.314Z,9.82
2022-11-06T13:26:38.100Z,10.45
2022-11-06T13:28:46.718Z,10.48
2022-11-06T13:30:52.773Z,10.63
2022-11-06T13:33:08.839Z,11.70
2022-11-06T13:35:18.118Z,11.63
2022-11-06T13:37:39.274Z,12.25
2022-11-06T13:39:47.887Z,10.82
2022-11-06T13:41:55.889Z,11.55
2022-11-06T13:44:04.505Z,11.70
2022-11-06T13:46:17.878Z,11.07
2022-11-06T13:48:37.369Z,10.60
2022-11-06T13:50:50.332Z,9.95
2022-11-06T13:52:59.751Z,10.07
2022-11-06T13:55:14.582Z,9.80
2022-11-06T13:57:39.520Z,9.98
2022-11-06T14:00:01.236Z,10.48
2022-11-06T14:02:24.496Z,10.23
2022-11-06T14:04:52.384Z,9.48
2022-11-06T14:07:02.070Z,9.93
2022-11-06T14:09:11.572Z,10.25
2022-11-06T14:11:19.146Z,11.45
2022-11-06T14:13:32.265Z,11.27
2022-11-06T14:15:42.040Z,8.98
2022-11-06T14:17:57.699Z,10.38
2022-11-06T14:20:28.865Z,9.73
2022-11-06T14:22:36.443Z,10.27
2022-11-06T14:24:42.100Z,10.70
2022-11-06T14:26:48.839Z,10.07
2022-11-06T14:28:56.356Z,10.30
2022-11-06T14:31:21.829Z,10.52
2022-11-06T14:33:59.080Z,11.10
2022-11-06T14:36:15.669Z,11.07
2022-11-06T14:38:44.469Z,11.13
2022-11-06T14:40:49.434Z,10.77
2022-11-06T14:42:54.415Z,11.13
2022-11-06T14:45:05.291Z,10.63
2022-11-06T14:47:21.927Z,11.25
2022-11-06T14:49:36.182Z,12.02
2022-11-06T14:51:41.056Z,11.10
2022-11-06T14:53:51.218Z,11.43
2022-11-06T14:56:01.901Z,10.57
2022-11-06T14:58:20.844Z,12.20
2022-11-06T15:00:46.519Z,12.70
2022-11-06T15:02:51.869Z,11.68
2022-11-06T15:05:01.518Z,10.95
2022-11-06T15:07:11.222Z,11.65
2022-11-06T15:09:18.497Z,11.43
2022-11-06T15:11:57.786Z,11.32
2022-11-06T15:14:32.345Z,18.17
2022-11-06T15:16:43.520Z,14.50
2022-11-06T15:18:48.916Z,13.57
2022-11-06T15:20:58.180Z,11.95
2022-11-06T15:23:10.119Z,13.20
2022-11-06T15:25:23.638Z,12.18
2022-11-06T15:27:32.070Z,11.98
2022-11-06T15:29:42.106Z,11.70
2022-11-06T15:31:51.876Z,12.05
2022-11-06T15:34:02.831Z,11.93
2022-11-06T15:36:13.395Z,12.57
2022-11-06T15:38:22.277Z,12.57
2022-11-06T15:40:31.422Z,12.85
2022-11-06T15:42:38.684Z,13.52
2022-11-06T15:44:44.967Z,11.32
2022-11-06T15:46:59.111Z,12.40
2022-11-06T15:49:20.147Z,18.42
2022-11-06T15:51:27.248Z,20.42
2022-11-06T15:53:38.279Z,25.00
2022-11-06T15:55:51.139Z,17.48
2022-11-06T15:57:55.961Z,15.70
2022-11-06T16:00:10.816Z,14.02
2022-11-06T16:02:22.433Z,18.70
2022-11-06T16:04:28.443Z,24.05
2022-11-06T16:06:34.194Z,30.27
2022-11-06T16:08:41.428Z,34.38
2022-11-06T16:10:48.391Z,17.27
2022-11-06T16:12:54.429Z,13.88
2022-11-06T16:14:59.226Z,13.00
2022-11-06T16:17:12.610Z,13.52
2022-11-06T16:19:30.602Z,13.27
2022-11-06T16:21:38.054Z,13.65
2022-11-06T16:23:47.327Z,13.20
2022-11-06T16:25:52.452Z,12.95
2022-11-06T16:27:57.420Z,13.05
2022-11-06T16:30:05.187Z,14.27
2022-11-06T16:32:12.197Z,13.60
2022-11-06T16:34:38.803Z,12.90
2022-11-06T16:36:59.996Z,13.63
2022-11-06T16:39:48.838Z,13.65
2022-11-06T16:42:04.757Z,13.13
2022-11-06T16:44:31.272Z,12.40
2022-11-06T16:47:15.156Z,13.68
2022-11-06T16:49:39.059Z,15.07
2022-11-06T16:51:43.816Z,17.80
2022-11-06T16:53:58.233Z,29.23
2022-11-06T16:56:04.866Z,53.10
2022-11-06T16:58:18.744Z,51.97
2022-11-06T17:00:29.338Z,43.10
2022-11-06T17:02:38.742Z,32.50
2022-11-06T17:04:46.293Z,21.42
2022-11-06T17:06:52.083Z,16.88
2022-11-06T17:09:09.167Z,15.45
2022-11-06T17:11:21.929Z,14.90
2022-11-06T17:13:29.939Z,16.27
2022-11-06T17:15:34.765Z,15.75
2022-11-06T17:17:40.144Z,15.38
2022-11-06T17:19:47.619Z,15.57
2022-11-06T17:21:53.113Z,15.65
2022-11-06T17:24:12.082Z,15.95
2022-11-06T17:26:21.398Z,16.70
2022-11-06T17:28:26.404Z,14.60
2022-11-06T17:30:31.389Z,15.52
2022-11-06T17:32:36.260Z,15.63
2022-11-06T17:34:41.121Z,15.85
2022-11-06T17:36:48.530Z,16.50
2022-11-06T17:38:53.776Z,15.00
2022-11-06T17:43:03.143Z,15.05
2022-11-06T17:45:09.148Z,16.27
2022-11-06T17:47:13.912Z,15.52
2022-11-06T17:49:19.059Z,17.08
2022-11-06T17:53:43.908Z,16.17
2022-11-06T17:55:48.685Z,15.50
2022-11-06T17:57:53.594Z,16.65
2022-11-06T17:59:58.373Z,15.48
2022-11-06T18:02:03.693Z,14.75
2022-11-06T18:04:09.871Z,16.45
2022-11-06T18:06:15.710Z,14.50
2022-11-06T18:08:20.473Z,16.20
2022-11-06T18:10:30.695Z,14.90
2022-11-06T18:12:35.956Z,16.02
2022-11-06T18:14:40.934Z,21.38
2022-11-06T18:16:45.804Z,22.25
2022-11-06T18:18:50.822Z,18.67
2022-11-06T18:20:55.745Z,24.90
2022-11-06T18:23:00.595Z,18.90
2022-11-06T18:25:05.322Z,17.13
2022-11-06T18:27:12.813Z,16.75
2022-11-06T18:29:17.677Z,15.63
2022-11-06T18:31:22.579Z,15.65
2022-11-06T18:33:27.529Z,17.15
2022-11-06T18:37:36.919Z,14.88
2022-11-06T18:39:42.480Z,16.15
2022-11-06T18:41:47.394Z,16.50
2022-11-06T18:43:58.778Z,17.50
2022-11-06T18:46:06.720Z,16.25
2022-11-06T18:48:13.775Z,19.67
2022-11-06T18:50:20.821Z,18.95
2022-11-06T18:52:51.752Z,17.52
2022-11-06T18:54:50.638Z,18.13
2022-11-06T18:56:55.429Z,16.77
2022-11-06T18:59:03.167Z,17.23
2022-11-06T19:01:08.803Z,17.27
2022-11-06T19:03:13.988Z,16.05
2022-11-06T19:05:19.296Z,19.52
2022-11-06T19:09:29.004Z,22.38
2022-11-06T19:11:34.036Z,19.83
2022-11-06T19:15:53.849Z,17.73
2022-11-06T19:17:58.685Z,18.70
2022-11-06T19:20:04.180Z,18.40
2022-11-06T19:22:10.679Z,17.77
2022-11-06T19:24:15.497Z,17.70
2022-11-06T19:26:36.325Z,18.73
2022-11-06T19:28:41.724Z,17.35
2022-11-06T19:32:53.720Z,16.02
2022-11-06T19:34:58.555Z,16.20
2022-11-06T19:37:03.379Z,16.45
2022-11-06T19:39:09.198Z,15.15
2022-11-06T19:41:14.303Z,15.80
2022-11-06T19:43:19.119Z,17.10
2022-11-06T19:45:25.071Z,16.85
2022-11-06T19:47:32.379Z,16.67
2022-11-06T19:49:39.753Z,16.48
2022-11-06T19:51:44.693Z,15.85
2022-11-06T19:53:49.524Z,15.80
2022-11-06T19:55:56.108Z,16.58
2022-11-06T19:58:01.024Z,16.25
2022-11-06T20:00:11.151Z,15.40
2022-11-06T20:02:17.224Z,17.17
2022-11-06T20:04:22.375Z,16.15
2022-11-06T20:06:30.239Z,15.68
2022-11-06T20:08:35.118Z,16.73
2022-11-06T20:10:41.563Z,17.38
2022-11-06T20:12:46.435Z,17.52
2022-11-06T20:14:51.242Z,15.75
2022-11-06T20:16:58.667Z,16.85
2022-11-06T20:19:03.410Z,16.70
2022-11-06T20:21:10.423Z,17.67
2022-11-06T20:23:20.831Z,17.10
2022-11-06T20:25:25.736Z,17.60
2022-11-06T20:27:30.517Z,17.52
2022-11-06T20:29:35.745Z,18.08
2022-11-06T20:31:41.112Z,16.08
2022-11-06T20:33:45.950Z,16.98
2022-11-06T20:35:50.816Z,16.67
2022-11-06T20:37:55.574Z,15.65
2022-11-06T20:40:03.045Z,16.52
2022-11-06T20:42:07.930Z,15.77
2022-11-06T20:44:12.659Z,21.02
2022-11-06T20:46:18.620Z,20.65
2022-11-06T20:48:23.548Z,20.83
2022-11-06T20:50:28.372Z,17.25
2022-11-06T20:52:33.277Z,17.15
2022-11-06T20:54:42.386Z,16.17
2022-11-06T20:56:52.896Z,19.45
2022-11-06T20:58:58.938Z,18.58
2022-11-06T21:01:04.888Z,17.48
2022-11-06T21:03:09.702Z,15.55
2022-11-06T21:05:14.946Z,15.15
2022-11-06T21:07:20.267Z,15.52
2022-11-06T21:09:25.035Z,15.65
2022-11-06T21:11:30.500Z,15.40
2022-11-06T21:13:37.950Z,16.20
2022-11-06T21:15:42.730Z,16.45
2022-11-06T21:17:47.438Z,17.10
2022-11-06T21:19:52.248Z,16.67
2022-11-06T21:21:58.596Z,17.48
2022-11-06T21:24:04.816Z,20.75
2022-11-06T21:26:12.427Z,23.45
2022-11-06T21:28:17.570Z,18.73
2022-11-06T21:30:25.905Z,17.23
2022-11-06T21:32:30.859Z,18.75
2022-11-06T21:34:35.653Z,17.17
2022-11-06T21:36:40.897Z,15.73
2022-11-06T21:40:50.588Z,15.43
2022-11-06T21:42:55.339Z,16.00
2022-11-06T21:45:00.117Z,15.27
2022-11-06T21:47:07.561Z,17.00
2022-11-06T21:49:12.944Z,15.38
2022-11-06T21:53:35.812Z,14.07
2022-11-06T21:55:54.004Z,15.55
2022-11-06T21:57:58.833Z,16.00
2022-11-06T22:00:03.688Z,16.02
2022-11-06T22:02:19.386Z,15.68
2022-11-06T22:04:24.460Z,14.85
2022-11-06T22:06:30.804Z,15.35
2022-11-06T22:08:39.012Z,15.00
2022-11-06T22:10:43.759Z,15.65
2022-11-06T22:12:48.508Z,14.65
2022-11-06T22:14:53.264Z,15.05
2022-11-06T22:16:58.033Z,16.70
2022-11-06T22:19:06.835Z,15.30
2022-11-06T22:21:13.280Z,16.10
2022-11-06T22:23:18.047Z,15.73
2022-11-06T22:25:22.940Z,17.10
2022-11-06T22:27:27.686Z,16.98
2022-11-06T22:29:32.469Z,15.52
2022-11-06T22:31:37.498Z,13.82
2022-11-06T22:33:42.921Z,14.27
2022-11-06T22:35:50.287Z,15.95
2022-11-06T22:37:55.135Z,15.13
2022-11-06T22:39:59.896Z,14.13
2022-11-06T22:42:04.641Z,14.80
2022-11-06T22:44:10.411Z,14.95
2022-11-06T22:48:21.017Z,14.68
2022-11-06T22:50:25.774Z,13.88
2022-11-06T22:52:33.113Z,14.23
2022-11-06T22:54:38.865Z,15.55
2022-11-06T22:56:43.835Z,13.80
2022-11-06T22:58:48.766Z,13.65
2022-11-06T23:00:54.539Z,15.13
2022-11-06T23:02:59.364Z,14.98
2022-11-06T23:05:04.138Z,15.77
2022-11-06T23:07:08.887Z,14.93
2022-11-06T23:09:17.145Z,13.85
2022-11-06T23:11:22.113Z,13.90
2022-11-06T23:13:26.977Z,13.43
2022-11-06T23:15:31.712Z,14.32
2022-11-06T23:17:38.796Z,13.00
2022-11-06T23:19:43.512Z,13.02
2022-11-06T23:21:48.535Z,14.27
2022-11-06T23:23:53.343Z,12.00
2022-11-06T23:26:00.672Z,13.15
2022-11-06T23:28:05.495Z,12.32
2022-11-06T23:30:12.428Z,12.63
2022-11-06T23:32:17.150Z,13.00
2022-11-06T23:34:21.957Z,12.68
2022-11-06T23:36:26.723Z,12.05
2022-11-06T23:38:31.474Z,12.23
2022-11-06T23:40:36.245Z,11.73
2022-11-06T23:42:44.161Z,12.60
2022-11-06T23:45:01.838Z,11.75
2022-11-06T23:47:06.713Z,11.60
2022-11-06T23:49:11.480Z,12.18
2022-11-06T23:51:16.441Z,11.65
2022-11-06T23:53:21.396Z,10.48
2022-11-06T23:55:26.167Z,10.02
2022-11-06T23:57:30.929Z,9.52
2022-11-06T23:59:38.702Z,11.68
